This is the latest recevied weather packets stored in our database for station/object DL6MAA-11. If no packets are shown the sender has not sent any weather packets the latest 10 day(s).
| Time | Temp. | Humidity | Pressure | Rain* | Wind** | Luminosity | Snow |
|---|---|---|---|---|---|---|---|
| 1777701726 | 8.89° C | 69% | 1019.8 hPa | 0 mm | - | 197 W/m² | - |
| 1777701429 | 8.33° C | 72% | 1020 hPa | 0 mm | - | 183 W/m² | - |
| 1777701135 | 7.78° C | 72% | 1020 hPa | 0 mm | - | 174 W/m² | - |
| 1777700823 | 7.22° C | 72% | 1020 hPa | 0 mm | - | 171 W/m² | - |
| 1777700532 | 7.22° C | 73% | 1020.3 hPa | 0 mm | - | 155 W/m² | - |
| 1777700224 | 6.67° C | 75% | 1020.3 hPa | 0 mm | - | 151 W/m² | - |
| 1777699925 | 6.11° C | 74% | 1020.3 hPa | 0 mm | - | 141 W/m² | - |
| 1777699627 | 5.56° C | 75% | 1020.4 hPa | 0 mm | - | 130 W/m² | - |
| 1777699338 | 5° C | 76% | 1020.4 hPa | 0 mm | - | 120 W/m² | - |
| 1777699023 | 4.44° C | 76% | 1020.4 hPa | 0 mm | - | 116 W/m² | - |
| 1777698724 | 4.44° C | 77% | 1020.4 hPa | 0 mm | - | 111 W/m² | - |
| 1777698432 | 3.89° C | 80% | 1020.4 hPa | 0 mm | - | 76 W/m² | - |
| 1777698137 | 2.78° C | 81% | 1020.4 hPa | 0 mm | - | 19 W/m² | - |
| 1777697832 | 2.22° C | 80% | 1020.4 hPa | 0 mm | - | 18 W/m² | - |
| 1777697535 | 2.22° C | 79% | 1020.4 hPa | 0 mm | - | 16 W/m² | - |
| 1777697224 | 2.22° C | 79% | 1020.4 hPa | 0 mm | - | 14 W/m² | - |
| 1777696929 | 2.22° C | 79% | 1020.4 hPa | 0 mm | - | 14 W/m² | - |
| 1777696635 | 2.22° C | 78% | 1020.4 hPa | 0 mm | - | 11 W/m² | - |
| 1777696322 | 2.22° C | 77% | 1020.4 hPa | 0 mm | - | 11 W/m² | - |
| 1777696025 | 2.22° C | 77% | 1020.4 hPa | 0 mm | - | 9 W/m² | - |
| 1777695721 | 1.67° C | 76% | 1020.4 hPa | 0 mm | - | 7 W/m² | - |
| 1777695427 | 2.22° C | 76% | 1020.4 hPa | 0 mm | - | 5 W/m² | - |
| 1777695130 | 2.22° C | 75% | 1020.2 hPa | 0 mm | - | 7 W/m² | - |
| 1777694829 | 2.22° C | 75% | 1020.2 hPa | 0 mm | - | 5 W/m² | - |
| 1777694529 | 2.22° C | 75% | 1020.2 hPa | 0 mm | - | 0 W/m² | - |
* Rain since midnight (hover to see other rain measurements)
** Current wind speed in m/s (hover to see current wind gust speed)